createdAt,value
2018-11-20T00:01:33.367Z,9.13
2018-11-20T00:04:20.330Z,10.60
2018-11-20T00:07:08.332Z,9.93
2018-11-20T00:10:05.319Z,11.00
2018-11-20T00:12:53.326Z,10.20
2018-11-20T00:15:39.865Z,8.87
2018-11-20T00:18:18.956Z,10.43
2018-11-20T00:21:18.811Z,10.63
2018-11-20T00:23:59.398Z,9.50
2018-11-20T00:26:46.198Z,11.07
2018-11-20T00:29:32.112Z,10.57
2018-11-20T00:32:24.945Z,9.00
2018-11-20T00:35:31.228Z,8.57
2018-11-20T00:38:19.189Z,9.40
2018-11-20T00:41:01.544Z,8.97
2018-11-20T00:44:01.635Z,8.33
2018-11-20T00:46:52.236Z,8.50
2018-11-20T00:49:38.997Z,8.43
2018-11-20T00:52:39.227Z,9.77
2018-11-20T00:56:05.150Z,8.17
2018-11-20T00:58:51.112Z,7.77
2018-11-20T01:01:37.850Z,8.00
2018-11-20T01:04:28.607Z,8.33
2018-11-20T01:07:08.145Z,8.80
2018-11-20T01:09:55.138Z,9.03
2018-11-20T01:12:34.707Z,7.37
2018-11-20T01:15:21.294Z,9.07
2018-11-20T01:18:14.763Z,8.07
2018-11-20T01:21:07.863Z,7.97
2018-11-20T01:23:48.424Z,7.83
2018-11-20T01:26:42.206Z,7.40
2018-11-20T01:29:23.261Z,7.07
2018-11-20T01:32:19.798Z,8.33
2018-11-20T01:35:06.464Z,7.80
2018-11-20T01:38:06.575Z,8.00
2018-11-20T01:40:54.276Z,9.37
2018-11-20T01:43:42.180Z,8.13
2018-11-20T01:46:34.952Z,7.83
2018-11-20T01:49:35.028Z,9.07
2018-11-20T01:52:15.815Z,9.13
2018-11-20T01:54:53.857Z,9.67
2018-11-20T01:57:50.081Z,9.27
2018-11-20T02:00:36.812Z,9.00
2018-11-20T02:03:23.607Z,9.00
2018-11-20T02:06:23.778Z,9.00
2018-11-20T02:09:20.670Z,9.53
2018-11-20T02:12:11.444Z,9.97
2018-11-20T02:14:57.932Z,8.63
2018-11-20T02:18:13.791Z,9.33
2018-11-20T02:21:09.259Z,8.80
2018-11-20T02:23:49.518Z,9.67
2018-11-20T02:26:29.083Z,8.73
2018-11-20T02:29:29.380Z,9.07
2018-11-20T02:32:35.300Z,9.73
2018-11-20T02:35:29.198Z,9.43
2018-11-20T02:38:20.001Z,9.27
2018-11-20T02:41:10.872Z,9.43
2018-11-20T02:43:58.806Z,10.43
2018-11-20T02:46:46.038Z,10.00
2018-11-20T02:49:33.283Z,10.33
2018-11-20T02:52:32.982Z,9.63
2018-11-20T02:55:39.196Z,10.00
2018-11-20T02:58:25.823Z,9.27
2018-11-20T03:01:19.921Z,9.40
2018-11-20T03:04:20.075Z,10.10
2018-11-20T03:07:26.540Z,9.17
2018-11-20T03:10:10.377Z,9.50
2018-11-20T03:13:04.956Z,9.57
2018-11-20T03:15:52.905Z,10.73
2018-11-20T03:18:40.866Z,9.93
2018-11-20T03:21:40.794Z,10.37
2018-11-20T03:24:31.221Z,9.47
2018-11-20T03:27:17.684Z,11.23
2018-11-20T03:30:53.568Z,10.87
2018-11-20T03:33:50.476Z,11.47
2018-11-20T03:36:36.949Z,11.13
2018-11-20T03:39:39.582Z,11.37
2018-11-20T03:42:34.053Z,10.63
2018-11-20T03:45:27.791Z,10.07
2018-11-20T03:48:14.608Z,10.47
2018-11-20T03:51:05.439Z,11.00
2018-11-20T03:54:05.572Z,10.57
2018-11-20T03:57:00.665Z,10.53
2018-11-20T03:59:48.308Z,10.53
2018-11-20T04:02:45.765Z,10.37
2018-11-20T04:05:32.439Z,10.80
2018-11-20T04:08:19.363Z,9.33
2018-11-20T04:11:06.036Z,10.07
2018-11-20T04:13:41.057Z,11.17
2018-11-20T04:16:27.665Z,10.90
2018-11-20T04:19:13.665Z,9.87
2018-11-20T04:22:04.851Z,10.90
2018-11-20T04:24:50.647Z,10.30
2018-11-20T04:27:56.732Z,10.17
2018-11-20T04:31:11.491Z,10.37
2018-11-20T04:34:12.381Z,10.43
2018-11-20T04:37:27.682Z,10.43
2018-11-20T04:40:07.179Z,10.13
2018-11-20T04:42:56.528Z,11.87
2018-11-20T04:45:44.005Z,10.70
2018-11-20T04:48:44.044Z,11.57
2018-11-20T04:51:40.913Z,11.83
2018-11-20T04:54:28.130Z,11.87
2018-11-20T04:57:14.961Z,10.97
2018-11-20T05:00:01.571Z,11.30
2018-11-20T05:02:51.977Z,11.53
2018-11-20T05:05:44.938Z,12.00
2018-11-20T05:08:30.551Z,11.80
2018-11-20T05:11:09.970Z,13.10
2018-11-20T05:14:00.671Z,12.87
2018-11-20T05:16:42.455Z,13.20
2018-11-20T05:19:30.347Z,13.43
2018-11-20T05:22:17.099Z,13.13
2018-11-20T05:25:05.017Z,14.13
2018-11-20T05:27:49.126Z,14.57
2018-11-20T05:30:29.333Z,12.83
2018-11-20T05:33:15.619Z,14.03
2018-11-20T05:36:12.284Z,15.50
2018-11-20T05:38:56.955Z,15.40
2018-11-20T05:41:44.838Z,14.53
2018-11-20T05:44:31.541Z,14.67
2018-11-20T05:47:26.003Z,14.27
2018-11-20T05:50:12.847Z,15.70
2018-11-20T05:53:13.176Z,16.20
2018-11-20T05:55:59.909Z,15.97
2018-11-20T05:58:49.785Z,16.17
2018-11-20T06:01:35.816Z,16.97
2018-11-20T06:04:23.719Z,15.30
2018-11-20T06:07:14.662Z,14.73
2018-11-20T06:10:03.282Z,17.00
2018-11-20T06:13:03.082Z,16.40
2018-11-20T06:15:44.260Z,17.53
2018-11-20T06:18:44.454Z,16.87
2018-11-20T06:21:47.476Z,15.83
2018-11-20T06:24:38.331Z,15.70
2018-11-20T06:27:29.460Z,17.33
2018-11-20T06:30:16.092Z,15.73
2018-11-20T06:33:00.157Z,16.13
2018-11-20T06:35:36.784Z,16.37
2018-11-20T06:38:23.386Z,16.17
2018-11-20T06:41:16.101Z,17.27
2018-11-20T06:44:13.175Z,16.53
2018-11-20T06:47:09.852Z,17.17
2018-11-20T06:49:57.716Z,16.10
2018-11-20T06:52:44.507Z,16.00
2018-11-20T06:55:31.783Z,17.17
2018-11-20T06:58:18.453Z,16.17
2018-11-20T07:01:05.007Z,16.17
2018-11-20T07:03:51.918Z,16.87
2018-11-20T07:06:32.104Z,16.37
2018-11-20T07:09:22.942Z,16.63
2018-11-20T07:12:13.921Z,17.33
2018-11-20T07:14:56.952Z,17.60
2018-11-20T07:17:43.741Z,17.33
2018-11-20T07:20:30.623Z,15.07
2018-11-20T07:23:08.963Z,16.33
2018-11-20T07:26:09.191Z,16.63
2018-11-20T07:28:59.873Z,16.67
2018-11-20T07:31:46.644Z,15.63
2018-11-20T07:34:33.570Z,15.93
2018-11-20T07:37:24.638Z,16.40
2018-11-20T07:40:13.062Z,16.00
2018-11-20T07:43:16.323Z,15.87
2018-11-20T07:46:07.126Z,16.00
2018-11-20T07:49:10.811Z,15.20
2018-11-20T07:52:07.795Z,15.13
2018-11-20T07:54:54.391Z,14.03
2018-11-20T07:57:41.080Z,15.27
2018-11-20T08:00:22.300Z,14.67
2018-11-20T08:03:25.521Z,14.70
2018-11-20T08:06:06.176Z,15.33
2018-11-20T08:08:48.307Z,16.67
2018-11-20T08:11:37.508Z,15.80
2018-11-20T08:14:24.411Z,17.20
2018-11-20T08:17:11.919Z,16.83
2018-11-20T08:19:58.611Z,17.23
2018-11-20T08:22:45.654Z,15.40
2018-11-20T08:25:32.369Z,16.60
2018-11-20T08:28:19.065Z,18.23
2018-11-20T08:31:05.847Z,17.23
2018-11-20T08:33:53.769Z,17.17
2018-11-20T08:36:40.480Z,15.83
2018-11-20T08:39:27.935Z,16.27
2018-11-20T08:42:09.608Z,15.93
2018-11-20T08:44:57.524Z,16.33
2018-11-20T08:47:51.436Z,15.73
2018-11-20T08:50:28.626Z,15.57
2018-11-20T08:53:06.916Z,16.87
2018-11-20T08:55:46.493Z,15.33
2018-11-20T08:58:46.878Z,15.80
2018-11-20T09:01:39.296Z,13.67
2018-11-20T09:04:21.287Z,14.43
2018-11-20T09:07:09.243Z,14.20
2018-11-20T09:10:03.203Z,14.60
2018-11-20T09:12:51.043Z,13.60
2018-11-20T09:15:37.763Z,14.07
2018-11-20T09:18:24.428Z,14.13
2018-11-20T09:21:11.146Z,13.97
2018-11-20T09:23:57.837Z,15.03
2018-11-20T09:26:44.513Z,12.83
2018-11-20T09:29:41.508Z,12.93
2018-11-20T09:32:35.311Z,11.90
2018-11-20T09:35:22.385Z,13.80
2018-11-20T09:38:12.995Z,13.07
2018-11-20T09:41:16.956Z,14.40
2018-11-20T09:44:41.242Z,12.77
2018-11-20T09:47:28.263Z,12.77
2018-11-20T09:50:22.895Z,13.40
2018-11-20T09:53:09.463Z,13.03
2018-11-20T09:56:06.272Z,12.83
2018-11-20T09:58:59.782Z,13.13
2018-11-20T10:02:02.599Z,13.10
2018-11-20T10:05:00.340Z,13.67
2018-11-20T10:07:46.694Z,13.90
2018-11-20T10:10:40.157Z,13.27
2018-11-20T10:13:33.790Z,13.23
2018-11-20T10:16:21.509Z,15.27
2018-11-20T10:19:08.346Z,14.97
2018-11-20T10:21:59.059Z,14.03
2018-11-20T10:24:45.372Z,14.87
2018-11-20T10:27:38.679Z,14.07
2018-11-20T10:30:22.602Z,14.60
2018-11-20T10:33:08.897Z,14.17
2018-11-20T10:36:06.443Z,15.07
2018-11-20T10:38:52.954Z,12.10
2018-11-20T10:41:46.521Z,14.87
2018-11-20T10:44:49.351Z,15.50
2018-11-20T10:47:35.944Z,13.67
2018-11-20T10:50:32.639Z,14.30
2018-11-20T10:53:18.770Z,14.83
2018-11-20T10:56:09.238Z,15.77
2018-11-20T10:59:09.300Z,16.40
2018-11-20T11:01:55.859Z,14.77
2018-11-20T11:04:42.338Z,18.23
2018-11-20T11:07:19.262Z,16.93
2018-11-20T11:10:09.799Z,15.57
2018-11-20T11:13:06.855Z,16.70
2018-11-20T11:15:56.347Z,16.23
2018-11-20T11:18:46.620Z,17.20
2018-11-20T11:21:49.413Z,14.97
2018-11-20T11:24:45.762Z,17.60
2018-11-20T11:27:31.969Z,16.33
2018-11-20T11:30:38.281Z,16.80
2018-11-20T11:33:38.194Z,16.57
2018-11-20T11:36:32.696Z,16.87
2018-11-20T11:39:19.075Z,16.63
2018-11-20T11:42:18.661Z,16.20
2018-11-20T11:45:18.100Z,16.30
2018-11-20T11:48:20.853Z,16.23
2018-11-20T11:51:17.462Z,15.93
2018-11-20T11:54:03.752Z,15.70
2018-11-20T11:56:51.428Z,16.10
2018-11-20T11:59:38.011Z,15.97
2018-11-20T12:05:14.598Z,16.27
2018-11-20T12:07:56.215Z,18.23
2018-11-20T12:10:42.697Z,17.40
2018-11-20T12:13:36.589Z,16.93
2018-11-20T12:16:39.458Z,16.47
2018-11-20T12:19:26.205Z,17.10
2018-11-20T12:22:12.430Z,15.87
2018-11-20T12:25:14.945Z,15.53
2018-11-20T12:28:01.478Z,17.83
2018-11-20T12:30:54.767Z,17.40
2018-11-20T12:33:59.998Z,16.87
2018-11-20T12:36:39.283Z,14.83
2018-11-20T12:39:46.545Z,15.97
2018-11-20T12:42:33.129Z,16.77
2018-11-20T12:45:19.404Z,14.30
2018-11-20T12:48:19.138Z,16.37
2018-11-20T12:51:13.692Z,16.07
2018-11-20T12:54:10.331Z,14.57
2018-11-20T12:56:56.675Z,14.90
2018-11-20T12:59:43.261Z,15.07
2018-11-20T13:02:29.451Z,15.77
2018-11-20T13:05:17.123Z,14.57
2018-11-20T13:08:05.235Z,15.47
2018-11-20T13:11:08.141Z,16.23
2018-11-20T13:13:58.831Z,15.53
2018-11-20T13:16:41.340Z,16.17
2018-11-20T13:19:29.387Z,16.53
2018-11-20T13:22:14.120Z,16.43
2018-11-20T13:25:04.523Z,15.53
2018-11-20T13:28:10.419Z,17.17
2018-11-20T13:30:58.191Z,15.77
2018-11-20T13:33:37.475Z,16.30
2018-11-20T13:36:21.972Z,15.00
2018-11-20T13:39:18.455Z,13.30
2018-11-20T13:42:01.134Z,16.73
2018-11-20T13:44:49.549Z,16.23
2018-11-20T13:47:39.976Z,15.60
2018-11-20T13:50:27.144Z,16.77
2018-11-20T13:53:13.728Z,16.50
2018-11-20T13:56:01.469Z,15.90
2018-11-20T13:58:49.893Z,14.43
2018-11-20T14:01:37.601Z,16.87
2018-11-20T14:04:15.269Z,16.80
2018-11-20T14:07:08.873Z,16.33
2018-11-20T14:09:57.566Z,17.60
2018-11-20T14:12:43.964Z,18.23
2018-11-20T14:15:37.600Z,17.33
2018-11-20T14:18:24.169Z,17.27
2018-11-20T14:21:11.902Z,16.17
2018-11-20T14:24:08.635Z,16.83
2018-11-20T14:27:02.236Z,15.80
2018-11-20T14:29:44.368Z,15.80
2018-11-20T14:32:39.648Z,15.50
2018-11-20T14:35:26.188Z,17.90
2018-11-20T14:38:21.262Z,16.07
2018-11-20T14:41:07.983Z,16.30
2018-11-20T14:44:08.165Z,18.37
2018-11-20T14:46:54.698Z,18.07
2018-11-20T14:50:00.506Z,18.80
2018-11-20T14:52:48.212Z,17.47
2018-11-20T14:55:35.130Z,16.80
2018-11-20T14:58:28.259Z,17.17
2018-11-20T15:01:14.527Z,16.83
2018-11-20T15:04:11.054Z,17.03
2018-11-20T15:06:57.285Z,19.20
2018-11-20T15:09:44.167Z,16.10
2018-11-20T15:12:34.608Z,15.70
2018-11-20T15:15:28.210Z,18.47
2018-11-20T15:18:18.842Z,17.83
2018-11-20T15:21:05.517Z,16.97
2018-11-20T15:23:54.793Z,19.90
2018-11-20T15:26:39.222Z,17.50
2018-11-20T15:29:40.103Z,18.77
2018-11-20T15:32:29.258Z,16.33
2018-11-20T15:35:21.299Z,17.83
2018-11-20T15:38:14.738Z,18.50
2018-11-20T15:41:01.235Z,17.33
2018-11-20T15:43:52.994Z,18.97
2018-11-20T15:47:14.530Z,17.70
2018-11-20T15:50:01.036Z,16.60
2018-11-20T15:52:48.980Z,17.23
2018-11-20T15:55:35.847Z,17.43
2018-11-20T15:58:22.371Z,17.93
2018-11-20T16:01:23.172Z,16.57
2018-11-20T16:04:11.586Z,16.93
2018-11-20T16:07:02.042Z,16.63
2018-11-20T16:09:47.095Z,16.40
2018-11-20T16:12:35.147Z,17.80
2018-11-20T16:15:24.371Z,16.03
2018-11-20T16:18:10.818Z,16.50
2018-11-20T16:21:10.600Z,15.43
2018-11-20T16:23:57.360Z,14.03
2018-11-20T16:26:48.144Z,16.97
2018-11-20T16:29:45.303Z,16.07
2018-11-20T16:32:46.654Z,14.73
2018-11-20T16:35:52.553Z,14.33
2018-11-20T16:38:40.621Z,13.97
2018-11-20T16:41:34.302Z,14.00
2018-11-20T16:44:21.101Z,13.73
2018-11-20T16:47:07.997Z,14.40
2018-11-20T16:49:56.417Z,13.23
2018-11-20T16:52:45.425Z,14.57
2018-11-20T16:55:42.733Z,12.47
2018-11-20T16:58:43.885Z,13.53
2018-11-20T17:01:32.686Z,13.07
2018-11-20T17:04:21.157Z,12.67
2018-11-20T17:07:31.535Z,13.00
2018-11-20T17:10:22.374Z,13.00
2018-11-20T17:13:20.437Z,13.03
2018-11-20T17:16:10.477Z,12.20
2018-11-20T17:19:19.669Z,12.97
2018-11-20T17:22:13.439Z,13.77
2018-11-20T17:29:01.281Z,12.80
2018-11-20T17:32:03.862Z,12.63
2018-11-20T17:35:30.633Z,12.57
2018-11-20T17:42:33.526Z,13.90
2018-11-20T17:48:52.098Z,13.63
2018-11-20T17:51:34.439Z,15.17
2018-11-20T17:54:21.544Z,15.73
2018-11-20T17:57:12.469Z,14.23
2018-11-20T18:00:12.579Z,14.03
2018-11-20T18:02:59.817Z,15.17
2018-11-20T18:05:47.188Z,14.20
2018-11-20T18:08:41.325Z,14.37
2018-11-20T18:11:35.655Z,14.17
2018-11-20T18:14:32.309Z,16.77
2018-11-20T18:17:20.737Z,15.00
2018-11-20T18:20:07.878Z,14.73
2018-11-20T18:23:07.451Z,16.50
2018-11-20T18:26:05.482Z,15.10
2018-11-20T18:28:48.858Z,16.13
2018-11-20T18:31:44.723Z,15.30
2018-11-20T18:34:43.764Z,15.73
2018-11-20T18:37:24.943Z,16.20
2018-11-20T18:40:16.220Z,15.77
2018-11-20T18:43:10.342Z,15.07
2018-11-20T18:45:57.788Z,15.57
2018-11-20T18:48:47.857Z,16.97
2018-11-20T18:51:24.660Z,15.33
2018-11-20T18:54:24.763Z,16.63
2018-11-20T18:57:12.781Z,15.10
2018-11-20T18:59:54.696Z,16.33
2018-11-20T19:02:41.371Z,16.23
2018-11-20T19:05:41.588Z,15.13
2018-11-20T19:08:47.833Z,17.17
2018-11-20T19:11:34.653Z,15.90
2018-11-20T19:14:21.069Z,14.87
2018-11-20T19:17:21.248Z,16.30
2018-11-20T19:20:07.754Z,14.77
2018-11-20T19:22:59.134Z,18.00
2018-11-20T19:25:47.039Z,15.83
2018-11-20T19:28:34.035Z,16.70
2018-11-20T19:31:20.742Z,15.57
2018-11-20T19:34:07.482Z,17.03
2018-11-20T19:37:06.118Z,17.33
2018-11-20T19:39:53.410Z,14.00
2018-11-20T19:42:54.167Z,17.47
2018-11-20T19:45:40.603Z,15.70
2018-11-20T19:48:37.611Z,14.50
2018-11-20T19:51:24.478Z,17.43
2018-11-20T19:54:11.535Z,17.57
2018-11-20T19:57:08.566Z,17.33
2018-11-20T20:00:04.761Z,15.67
2018-11-20T20:02:51.453Z,15.37
2018-11-20T20:05:39.661Z,15.70
2018-11-20T20:08:48.593Z,16.50
2018-11-20T20:11:42.782Z,16.10
2018-11-20T20:14:34.336Z,16.90
2018-11-20T20:17:21.249Z,15.03
2018-11-20T20:20:08.698Z,18.53
2018-11-20T20:22:57.832Z,15.03
2018-11-20T20:25:45.719Z,14.43
2018-11-20T20:28:44.780Z,16.57
2018-11-20T20:31:38.627Z,15.13
2018-11-20T20:34:37.710Z,15.13
2018-11-20T20:37:37.338Z,15.00
2018-11-20T20:40:38.500Z,15.37
2018-11-20T20:43:44.915Z,14.53
2018-11-20T20:46:35.827Z,16.90
2018-11-20T20:49:26.672Z,16.63
2018-11-20T20:52:21.938Z,13.30
2018-11-20T20:55:08.965Z,14.60
2018-11-20T20:57:57.102Z,15.27
2018-11-20T21:00:50.295Z,16.53
2018-11-20T21:03:34.984Z,13.23
2018-11-20T21:06:33.147Z,15.53
2018-11-20T21:09:47.526Z,15.80
2018-11-20T21:12:36.946Z,14.13
2018-11-20T21:15:33.839Z,16.80
2018-11-20T21:18:32.956Z,13.77
2018-11-20T21:21:19.846Z,14.60
2018-11-20T21:24:08.515Z,11.20
2018-11-20T21:26:49.626Z,14.90
2018-11-20T21:29:47.138Z,14.77
2018-11-20T21:32:36.717Z,15.87
2018-11-20T21:35:23.696Z,16.10
2018-11-20T21:38:11.663Z,13.23
2018-11-20T21:40:58.298Z,15.73
2018-11-20T21:43:55.396Z,14.63
2018-11-20T21:46:43.691Z,14.27
2018-11-20T21:49:53.401Z,17.17
2018-11-20T21:52:56.501Z,14.13
2018-11-20T21:58:50.919Z,15.27
2018-11-20T22:01:45.025Z,16.90
2018-11-20T22:11:01.186Z,14.80
2018-11-20T22:13:44.961Z,17.10
2018-11-20T22:32:45.891Z,17.83
2018-11-20T22:34:50.248Z,15.97
2018-11-20T22:37:35.497Z,14.00
2018-11-20T22:41:06.235Z,14.43
2018-11-20T22:44:38.760Z,16.37
2018-11-20T22:48:14.626Z,15.20
2018-11-20T22:51:14.062Z,14.27
2018-11-20T22:54:27.124Z,15.33
2018-11-20T22:57:07.459Z,15.63
2018-11-20T23:00:00.456Z,16.90
2018-11-20T23:02:45.735Z,15.93
2018-11-20T23:05:31.088Z,17.50
2018-11-20T23:08:00.241Z,15.90
2018-11-20T23:11:18.306Z,17.90
2018-11-20T23:13:47.356Z,17.50
2018-11-20T23:16:16.498Z,16.73
2018-11-20T23:18:58.110Z,17.37
2018-11-20T23:21:38.901Z,18.40
2018-11-20T23:28:14.506Z,18.13
2018-11-20T23:30:43.594Z,15.97
2018-11-20T23:33:13.682Z,15.50
2018-11-20T23:35:42.747Z,16.90
2018-11-20T23:38:11.947Z,18.20
2018-11-20T23:41:02.457Z,16.90
2018-11-20T23:43:31.322Z,17.73
2018-11-20T23:46:00.672Z,18.97
2018-11-20T23:48:29.815Z,18.93
2018-11-20T23:50:58.982Z,16.30
2018-11-20T23:53:30.729Z,19.60
2018-11-20T23:56:21.449Z,15.87
2018-11-20T23:58:50.357Z,17.37
